Time;durP1;ratioP1;P1;durP2;ratioP2;P2;SDS_P1;SDS_P2;PMS_P1;PMS_P2;Temp;Humidity;BMP_temperature;BMP_pressure;BME280_temperature;BME280_humidity;BME280_pressure;Samples;Min_cycle;Max_cycle;Signal;HPM_P1;HPM_P2
2023/11/06 00:00:27;;;;;;;3.05;0.60;;;;;;;14.93;55.88;93038.34;4968731;28;20113;-75
2023/11/06 00:02:53;;;;;;;1.13;0.95;;;;;;;14.91;54.86;93013.84;4969435;28;20762;-77
2023/11/06 00:05:19;;;;;;;5.53;0.77;;;;;;;15.34;54.48;93042.03;4962404;28;20035;-77
2023/11/06 00:07:44;;;;;;;4.40;0.50;;;;;;;15.14;54.72;93037.91;4969827;28;20039;-77
2023/11/06 00:10:11;;;;;;;3.08;0.60;;;;;;;15.13;54.50;93053.19;4967965;28;20035;-75
2023/11/06 00:12:40;;;;;;;2.05;1.50;;;;;;;15.26;54.74;93064.47;4968793;28;20026;-75
2023/11/06 00:15:07;;;;;;;10.00;1.10;;;;;;;15.13;55.65;93058.56;4982788;28;20038;-75
2023/11/06 00:17:33;;;;;;;2.33;0.80;;;;;;;14.97;56.22;93065.94;4968041;28;20512;-75
2023/11/06 00:19:59;;;;;;;4.55;0.73;;;;;;;15.19;55.06;93065.16;4968247;28;20048;-77
2023/11/06 00:22:25;;;;;;;9.52;2.08;;;;;;;15.05;59.49;93072.97;4967233;28;20048;-76
2023/11/06 00:24:50;;;;;;;5.95;1.50;;;;;;;14.95;60.85;93081.59;4967933;28;20054;-75
2023/11/06 00:27:15;;;;;;;5.70;1.60;;;;;;;14.97;61.64;93098.84;4968789;28;20041;-75
2023/11/06 00:29:44;;;;;;;3.58;1.33;;;;;;;15.04;60.74;93071.44;4965716;28;20077;-74
2023/11/06 00:32:09;;;;;;;10.35;2.72;;;;;;;15.34;59.99;93085.69;4968601;28;20103;-74
2023/11/06 00:34:34;;;;;;;4.88;1.25;;;;;;;15.59;59.40;93107.53;4966068;28;20034;-75
2023/11/06 00:37:00;;;;;;;5.95;1.50;;;;;;;15.37;60.09;93113.66;4968073;28;20034;-76
2023/11/06 00:39:25;;;;;;;7.25;1.80;;;;;;;15.42;60.19;93122.16;4965931;28;20500;-75
2023/11/06 00:41:51;;;;;;;3.95;1.30;;;;;;;15.52;59.88;93136.88;4969554;28;20042;-74
2023/11/06 00:44:17;;;;;;;3.25;1.40;;;;;;;15.51;60.28;93132.66;4963768;28;20396;-75
2023/11/06 00:46:42;;;;;;;3.75;1.50;;;;;;;15.21;62.04;93135.19;4969417;28;20450;-76
2023/11/06 00:49:10;;;;;;;6.82;2.53;;;;;;;14.79;64.26;93134.47;4971319;28;20033;-75
2023/11/06 00:51:38;;;;;;;4.97;2.55;;;;;;;14.84;64.12;93139.53;4966404;28;20018;-75
2023/11/06 00:54:04;;;;;;;6.28;3.30;;;;;;;14.70;64.77;93134.72;4968951;28;20039;-75
2023/11/06 00:56:29;;;;;;;5.25;2.67;;;;;;;14.92;63.34;93127.81;4961609;28;20514;-75
2023/11/06 00:58:55;;;;;;;7.35;2.55;;;;;;;15.06;62.56;93113.91;4961560;28;20057;-76
2023/11/06 01:01:20;;;;;;;4.97;2.47;;;;;;;14.85;62.44;93079.53;4965776;28;20061;-75
2023/11/06 01:03:46;;;;;;;8.20;2.67;;;;;;;15.26;62.00;93140.25;4969116;28;20022;-73
2023/11/06 01:06:12;;;;;;;4.07;2.03;;;;;;;15.27;62.41;93143.72;4967316;28;20030;-74
2023/11/06 01:08:37;;;;;;;4.38;2.08;;;;;;;14.91;63.20;93123.63;4968003;28;20185;-75
2023/11/06 01:11:03;;;;;;;8.32;2.20;;;;;;;14.95;62.78;93132.47;4968238;28;20038;-77
2023/11/06 01:13:29;;;;;;;5.78;1.95;;;;;;;15.01;62.09;93131.81;4964231;28;20133;-74
2023/11/06 01:15:56;;;;;;;4.18;2.03;;;;;;;15.09;61.78;93132.72;4966469;28;20452;-75
2023/11/06 01:18:22;;;;;;;8.82;2.13;;;;;;;15.18;61.37;93138.59;4967285;28;20034;-75
2023/11/06 01:20:48;;;;;;;3.83;1.70;;;;;;;15.22;61.43;93152.06;4965199;28;20042;-76
2023/11/06 01:23:14;;;;;;;6.35;1.90;;;;;;;15.14;61.61;93145.81;4968451;28;20046;-74
2023/11/06 01:25:42;;;;;;;3.65;1.80;;;;;;;15.22;61.26;93158.19;4963877;28;20081;-75
2023/11/06 01:28:11;;;;;;;3.72;1.90;;;;;;;15.27;60.04;93159.78;4967700;28;20548;-76
2023/11/06 01:30:36;;;;;;;6.35;2.80;;;;;;;15.23;60.34;93158.97;4963480;28;20018;-75
2023/11/06 01:33:02;;;;;;;4.78;1.50;;;;;;;15.19;60.37;93155.44;4966496;28;20038;-75
2023/11/06 01:35:30;;;;;;;3.53;1.83;;;;;;;15.19;60.35;93163.50;4964008;28;20035;-75
2023/11/06 01:37:57;;;;;;;5.43;1.75;;;;;;;15.14;59.82;93161.88;4965835;28;20236;-76
2023/11/06 01:40:23;;;;;;;4.03;1.50;;;;;;;15.09;59.90;93164.84;4969300;28;20038;-75
2023/11/06 01:42:48;;;;;;;7.57;1.38;;;;;;;15.03;58.04;93171.63;4969505;28;20378;-75
2023/11/06 01:45:14;;;;;;;5.38;1.70;;;;;;;15.01;56.78;93163.16;4962455;28;20132;-74
2023/11/06 01:47:40;;;;;;;3.88;1.38;;;;;;;15.09;57.55;93170.22;4967555;28;20035;-74
2023/11/06 01:50:07;;;;;;;5.18;1.58;;;;;;;14.81;58.56;93175.84;4966215;28;20034;-75
2023/11/06 01:52:33;;;;;;;3.70;1.40;;;;;;;14.72;56.68;93161.88;4967370;28;20408;-75
2023/11/06 01:54:59;;;;;;;6.53;1.27;;;;;;;14.91;56.15;93190.53;4963934;28;20536;-75
2023/11/06 01:57:26;;;;;;;2.95;0.90;;;;;;;14.67;52.32;93191.59;4967758;28;20034;-75
2023/11/06 01:59:53;;;;;;;4.47;1.60;;;;;;;14.10;55.13;93203.78;4964314;28;20484;-75
2023/11/06 02:02:22;;;;;;;5.32;1.15;;;;;;;14.02;55.08;93194.06;4964695;28;20043;-75
2023/11/06 02:04:49;;;;;;;8.77;1.95;;;;;;;13.88;55.85;93187.66;4969772;28;20041;-74
2023/11/06 02:07:17;;;;;;;2.55;1.40;;;;;;;13.94;53.36;93186.22;4963257;28;20030;-76
2023/11/06 02:09:43;;;;;;;5.78;1.92;;;;;;;13.90;55.66;93185.38;4966982;28;20571;-76
2023/11/06 02:12:09;;;;;;;6.85;0.80;;;;;;;14.01;52.04;93191.75;4966350;28;20031;-75
2023/11/06 02:14:54;;;;;;;3.50;0.68;;;;;;;14.08;49.34;93195.34;4965980;28;20413;-74
2023/11/06 02:17:20;;;;;;;4.93;1.23;;;;;;;14.14;52.52;93177.13;4967088;28;20039;-75
2023/11/06 02:20:03;;;;;;;3.75;1.95;;;;;;;14.23;57.16;93198.34;4964027;28;20105;-74
2023/11/06 02:22:29;;;;;;;6.78;1.30;;;;;;;14.00;51.63;93190.19;4966770;28;20993;-75
2023/11/06 02:24:55;;;;;;;3.05;0.80;;;;;;;13.97;51.16;93185.56;4964522;28;20740;-75
2023/11/06 02:27:20;;;;;;;3.55;0.88;;;;;;;14.07;48.18;93204.50;4968221;28;20034;-75
2023/11/06 02:29:46;;;;;;;2.88;0.77;;;;;;;14.22;48.31;93197.56;4965312;28;20065;-74
2023/11/06 02:32:11;;;;;;;1.90;0.70;;;;;;;14.10;46.20;93198.44;4968792;28;20091;-74
2023/11/06 02:34:40;;;;;;;6.53;0.80;;;;;;;14.22;47.50;93197.56;4963470;28;20378;-76
2023/11/06 02:37:05;;;;;;;2.70;0.98;;;;;;;14.36;45.28;93205.09;4967329;28;20065;-75
2023/11/06 02:39:34;;;;;;;5.35;1.10;;;;;;;14.35;44.80;93201.66;4965715;28;20113;-74
2023/11/06 02:42:06;;;;;;;2.63;0.90;;;;;;;14.25;43.37;93202.19;4968621;28;20572;-76
2023/11/06 02:44:31;;;;;;;4.63;0.88;;;;;;;14.16;44.02;93223.03;4961146;28;20035;-74
2023/11/06 02:46:57;;;;;;;6.10;1.20;;;;;;;14.07;43.95;93222.44;4965965;28;20120;-74
2023/11/06 02:49:24;;;;;;;2.58;0.68;;;;;;;13.89;45.02;93194.53;4964992;28;20622;-74
2023/11/06 02:51:52;;;;;;;4.10;0.70;;;;;;;13.88;45.17;93204.47;4967206;28;20049;-76
2023/11/06 02:54:25;;;;;;;3.60;1.05;;;;;;;13.64;45.61;93224.13;4967882;28;20174;-75
2023/11/06 02:56:51;;;;;;;3.25;1.40;;;;;;;13.67;51.92;93228.78;4965859;28;20026;-74
2023/11/06 02:59:17;;;;;;;6.30;0.90;;;;;;;13.87;48.19;93234.19;4964725;28;20178;-75
2023/11/06 03:01:43;;;;;;;3.63;1.30;;;;;;;14.01;49.84;93239.88;4963577;28;20043;-75
2023/11/06 03:04:14;;;;;;;5.97;1.90;;;;;;;13.87;56.66;93239.53;4965405;28;20030;-75
2023/11/06 03:06:41;;;;;;;4.38;0.90;;;;;;;13.61;49.13;93213.34;4977056;28;20049;-75
2023/11/06 03:09:12;;;;;;;6.00;1.65;;;;;;;13.78;53.78;93260.34;4982911;28;20132;-76
2023/11/06 03:11:37;;;;;;;2.55;1.70;;;;;;;13.41;55.60;93249.84;4963976;28;20034;-75
2023/11/06 03:14:05;;;;;;;2.45;0.73;;;;;;;13.54;45.97;93243.34;4982120;28;20037;-74
2023/11/06 03:16:32;;;;;;;5.85;0.98;;;;;;;13.75;45.76;93246.53;4963299;28;20117;-75
2023/11/06 03:18:58;;;;;;;3.20;0.90;;;;;;;13.54;46.06;93263.94;4967302;28;20017;-75
2023/11/06 03:21:24;;;;;;;3.58;0.80;;;;;;;13.70;46.44;93262.03;4964738;28;20232;-74
2023/11/06 03:23:49;;;;;;;2.13;0.80;;;;;;;13.56;45.45;93269.69;4967406;28;20054;-76
2023/11/06 03:26:15;;;;;;;7.40;0.93;;;;;;;13.63;44.86;93265.34;4971467;28;20545;-76
2023/11/06 03:28:40;;;;;;;2.30;0.70;;;;;;;13.60;43.65;93271.34;4969675;28;20027;-76
2023/11/06 03:31:07;;;;;;;3.00;1.08;;;;;;;13.81;43.67;93283.69;4968104;28;20022;-74
2023/11/06 03:33:32;;;;;;;2.50;0.70;;;;;;;13.66;40.46;93251.28;4969699;28;20121;-75
2023/11/06 03:36:03;;;;;;;2.97;0.85;;;;;;;13.87;39.58;93288.44;4967565;28;20037;-76
2023/11/06 03:38:28;;;;;;;3.63;0.77;;;;;;;13.88;40.42;93273.19;4965931;28;20039;-74
2023/11/06 03:40:55;;;;;;;1.58;0.73;;;;;;;13.77;39.83;93277.47;4955549;28;20050;-75
2023/11/06 03:43:20;;;;;;;3.42;0.80;;;;;;;13.92;40.77;93268.69;4967620;28;20054;-74
2023/11/06 03:45:46;;;;;;;5.15;1.80;;;;;;;14.01;41.08;93275.41;4968622;28;20106;-76
2023/11/06 03:48:12;;;;;;;4.72;0.82;;;;;;;14.00;40.43;93283.75;4968380;28;20409;-75
2023/11/06 03:50:42;;;;;;;2.97;0.60;;;;;;;14.06;40.10;93287.72;4969371;28;20046;-76
2023/11/06 03:53:13;;;;;;;3.53;0.85;;;;;;;14.23;41.69;93289.28;4971071;28;20035;-76
2023/11/06 03:55:39;;;;;;;2.95;1.10;;;;;;;14.33;41.60;93302.84;4975027;28;20043;-76
2023/11/06 03:58:04;;;;;;;2.50;0.70;;;;;;;14.41;40.73;93317.19;4971441;28;20767;-75
2023/11/06 04:00:30;;;;;;;1.85;0.70;;;;;;;14.24;39.98;93307.63;4968864;28;20039;-75
2023/11/06 04:02:56;;;;;;;7.13;1.30;;;;;;;14.40;40.93;93327.09;4966519;28;20104;-75
2023/11/06 04:05:21;;;;;;;7.45;0.90;;;;;;;14.28;40.01;93303.13;4967020;28;20542;-74
2023/11/06 04:07:47;;;;;;;2.95;0.88;;;;;;;14.48;38.98;93317.31;4970861;28;20066;-76
2023/11/06 04:10:12;;;;;;;1.90;0.73;;;;;;;14.14;39.46;93318.84;4971052;28;20081;-76
2023/11/06 04:12:38;;;;;;;3.55;1.08;;;;;;;14.23;39.80;93343.50;4968834;28;20088;-76
2023/11/06 04:15:07;;;;;;;3.42;0.60;;;;;;;14.28;39.53;93340.56;4966714;28;20408;-75
2023/11/06 04:17:33;;;;;;;5.57;0.90;;;;;;;14.26;39.39;93334.81;4967998;28;20043;-76
2023/11/06 04:19:58;;;;;;;2.38;0.70;;;;;;;14.25;38.15;93343.94;4966112;28;20056;-74
2023/11/06 04:22:24;;;;;;;18.45;2.45;;;;;;;14.15;38.66;93336.44;4970415;28;20590;-75
2023/11/06 04:24:49;;;;;;;3.70;0.70;;;;;;;14.16;39.03;93357.50;4969534;28;20572;-75
2023/11/06 04:27:15;;;;;;;2.80;1.08;;;;;;;14.18;39.67;93346.44;4968370;28;20150;-75
2023/11/06 04:29:40;;;;;;;5.22;1.08;;;;;;;14.06;38.90;93317.13;4969886;28;20125;-75
2023/11/06 04:32:06;;;;;;;1.77;0.80;;;;;;;14.38;40.82;93369.47;4965767;28;20042;-75
2023/11/06 04:34:31;;;;;;;3.83;0.85;;;;;;;14.24;39.41;93355.75;4969043;28;20061;-76
2023/11/06 04:36:57;;;;;;;3.78;0.80;;;;;;;14.08;39.98;93365.72;4972813;28;21121;-76
2023/11/06 04:39:22;;;;;;;1.80;0.60;;;;;;;14.03;40.15;93360.63;4969604;28;20038;-76
2023/11/06 04:41:48;;;;;;;6.20;0.88;;;;;;;14.31;40.49;93372.00;4978053;28;20753;-75
2023/11/06 04:44:13;;;;;;;2.45;0.70;;;;;;;14.39;40.31;93372.91;4969775;28;20042;-75
2023/11/06 04:46:38;;;;;;;2.80;0.80;;;;;;;14.39;40.43;93367.56;4969538;28;20046;-74
2023/11/06 04:49:06;;;;;;;4.55;0.85;;;;;;;14.21;40.92;93334.28;4971010;28;20531;-75
2023/11/06 04:51:31;;;;;;;3.15;0.80;;;;;;;14.59;41.07;93393.28;4970713;28;20045;-75
2023/11/06 04:53:57;;;;;;;4.53;0.95;;;;;;;14.60;40.03;93384.94;4969178;28;20062;-74
2023/11/06 04:56:23;;;;;;;4.75;1.10;;;;;;;14.72;41.32;93383.25;4970199;28;20496;-74
2023/11/06 04:58:49;;;;;;;2.40;1.10;;;;;;;14.84;41.54;93391.97;4968751;28;20595;-75
2023/11/06 05:01:18;;;;;;;5.25;0.95;;;;;;;14.67;40.94;93395.00;4969211;28;20037;-76
2023/11/06 05:03:43;;;;;;;2.15;0.68;;;;;;;14.83;41.43;93403.00;4968839;28;20019;-75
2023/11/06 05:06:08;;;;;;;4.68;0.98;;;;;;;14.56;40.48;93404.72;4966753;28;20065;-76
2023/11/06 05:08:35;;;;;;;5.47;0.90;;;;;;;14.61;41.02;93417.81;4968417;28;21021;-75
2023/11/06 05:11:01;;;;;;;5.70;1.00;;;;;;;14.54;41.35;93418.41;4973401;28;20045;-75
2023/11/06 05:13:26;;;;;;;3.92;1.00;;;;;;;14.47;41.85;93420.88;4968111;28;20035;-74
2023/11/06 05:15:52;;;;;;;6.43;1.05;;;;;;;14.48;41.14;93438.50;4969080;28;20053;-75
2023/11/06 05:18:18;;;;;;;4.22;1.77;;;;;;;14.24;47.59;93436.00;4966052;28;20523;-74
2023/11/06 05:20:43;;;;;;;3.30;1.40;;;;;;;14.05;45.56;93444.69;4967450;28;20030;-75
2023/11/06 05:23:09;;;;;;;3.45;1.42;;;;;;;13.57;49.46;93461.72;4966866;28;20581;-74
2023/11/06 05:25:35;;;;;;;5.30;2.20;;;;;;;13.66;51.56;93464.28;4966360;28;20119;-75
2023/11/06 05:28:01;;;;;;;4.32;2.13;;;;;;;13.47;53.28;93461.41;4967071;28;20794;-75
2023/11/06 05:30:26;;;;;;;3.03;1.85;;;;;;;13.39;50.39;93465.78;4966170;28;20125;-75
2023/11/06 05:32:57;;;;;;;4.28;2.05;;;;;;;13.16;53.64;93465.50;4967292;28;20789;-75
2023/11/06 05:35:22;;;;;;;4.00;2.53;;;;;;;13.03;49.39;93420.47;4967974;28;20063;-75
2023/11/06 05:37:48;;;;;;;3.85;1.30;;;;;;;12.82;51.64;93471.31;4965479;28;20121;-75
2023/11/06 05:40:13;;;;;;;5.05;1.77;;;;;;;12.74;51.65;93457.00;4967066;28;20061;-75
2023/11/06 05:42:40;;;;;;;7.72;2.13;;;;;;;12.78;53.07;93487.22;4975741;28;20041;-76
2023/11/06 05:45:07;;;;;;;5.30;1.67;;;;;;;12.90;51.86;93481.13;4972544;28;20584;-77
2023/11/06 05:47:32;;;;;;;4.38;2.97;;;;;;;12.44;56.44;93479.63;4973639;28;20055;-75
2023/11/06 05:49:58;;;;;;;8.07;5.88;;;;;;;12.11;62.04;93505.56;4970858;28;20437;-76
2023/11/06 05:52:24;;;;;;;5.40;4.60;;;;;;;12.24;62.37;93499.16;4968613;28;20109;-76
2023/11/06 05:54:50;;;;;;;9.18;4.70;;;;;;;11.48;67.04;93518.19;4967119;28;20064;-75
2023/11/06 05:57:15;;;;;;;8.88;5.70;;;;;;;11.28;67.79;93517.06;4966300;28;20113;-75
2023/11/06 05:59:41;;;;;;;5.55;5.03;;;;;;;11.20;68.25;93527.78;4965854;28;20451;-74
2023/11/06 06:02:08;;;;;;;9.65;4.75;;;;;;;11.38;68.08;93545.97;4968310;28;20489;-75
2023/11/06 06:04:34;;;;;;;7.22;4.47;;;;;;;11.67;66.90;93553.16;4966290;28;20038;-75
2023/11/06 06:06:59;;;;;;;7.03;4.30;;;;;;;11.83;66.37;93556.75;4979974;28;20463;-74
2023/11/06 06:09:25;;;;;;;7.43;4.25;;;;;;;11.98;64.32;93548.16;4968485;28;20045;-74
2023/11/06 06:11:51;;;;;;;10.15;4.10;;;;;;;12.07;64.27;93563.31;4969943;28;20121;-75
2023/11/06 06:14:17;;;;;;;4.72;3.25;;;;;;;12.04;63.71;93564.72;4974393;28;20125;-75
2023/11/06 06:16:44;;;;;;;8.60;3.90;;;;;;;12.40;61.64;93543.53;4969720;28;20042;-76
2023/11/06 06:19:10;;;;;;;10.02;3.88;;;;;;;12.84;60.58;93571.31;4966559;28;20034;-75
2023/11/06 06:21:36;;;;;;;5.25;3.28;;;;;;;12.62;60.95;93561.03;4966065;28;20035;-76
2023/11/06 06:24:01;;;;;;;4.95;2.75;;;;;;;12.86;60.88;93585.06;4964023;28;20089;-75
2023/11/06 06:26:29;;;;;;;9.10;3.30;;;;;;;13.18;59.73;93596.00;4965842;28;20615;-76
2023/11/06 06:28:55;;;;;;;4.75;3.10;;;;;;;13.24;59.50;93592.78;4963922;28;20062;-76
2023/11/06 06:31:21;;;;;;;5.13;2.47;;;;;;;13.51;58.51;93593.19;4966159;28;20102;-76
2023/11/06 06:33:47;;;;;;;3.40;2.10;;;;;;;13.67;57.82;93602.91;4972330;28;20559;-75
2023/11/06 06:36:13;;;;;;;8.60;2.65;;;;;;;13.77;56.83;93590.19;4961595;28;20049;-75
2023/11/06 06:38:38;;;;;;;6.22;2.38;;;;;;;13.27;56.22;93500.53;4965825;28;20423;-75
2023/11/06 06:41:06;;;;;;;4.43;1.63;;;;;;;13.35;57.49;93598.44;4963240;28;20087;-75
2023/11/06 06:43:34;;;;;;;4.90;1.75;;;;;;;13.63;57.13;93612.72;4964782;28;20129;-77
2023/11/06 06:46:00;;;;;;;5.50;2.15;;;;;;;13.71;56.82;93614.47;4955550;28;20034;-77
2023/11/06 06:48:25;;;;;;;3.72;2.13;;;;;;;13.66;56.87;93614.69;4961303;28;20056;-76
2023/11/06 06:50:51;;;;;;;3.80;1.98;;;;;;;13.74;56.68;93615.66;4961543;28;21490;-75
2023/11/06 06:53:16;;;;;;;4.88;1.50;;;;;;;13.65;56.81;93615.81;4961296;28;20050;-75
2023/11/06 06:55:41;;;;;;;4.80;1.90;;;;;;;14.08;55.99;93630.44;4963442;28;20112;-76
2023/11/06 06:58:07;;;;;;;7.97;2.05;;;;;;;14.03;56.15;93641.38;4965808;28;20031;-75
2023/11/06 07:00:35;;;;;;;4.57;1.63;;;;;;;14.17;55.49;93639.09;4966580;28;20022;-76
2023/11/06 07:03:05;;;;;;;3.05;1.52;;;;;;;14.03;55.47;93633.34;4964878;28;20034;-75
2023/11/06 07:05:33;;;;;;;10.45;2.40;;;;;;;13.91;56.89;93626.13;4967074;28;20089;-75
2023/11/06 07:07:59;;;;;;;4.15;2.20;;;;;;;13.87;56.61;93648.53;4970200;28;20393;-76
2023/11/06 07:10:25;;;;;;;7.60;1.80;;;;;;;13.64;56.00;93643.63;4965217;28;20216;-76
2023/11/06 07:12:51;;;;;;;5.38;1.90;;;;;;;13.53;56.40;93647.09;4967668;28;20712;-74
2023/11/06 07:15:16;;;;;;;4.88;1.20;;;;;;;13.15;54.27;93626.81;4969130;28;20464;-75
2023/11/06 07:17:42;;;;;;;2.55;1.27;;;;;;;13.45;54.58;93656.75;4966412;28;20042;-75
2023/11/06 07:20:08;;;;;;;4.75;1.45;;;;;;;13.64;53.58;93646.31;4966529;28;20092;-74
2023/11/06 07:22:33;;;;;;;3.83;1.85;;;;;;;13.99;53.40;93656.50;4966787;28;20031;-76
2023/11/06 07:25:00;;;;;;;3.85;1.35;;;;;;;13.87;53.17;93625.25;4966477;28;20854;-75
2023/11/06 07:27:26;;;;;;;4.03;1.63;;;;;;;14.25;53.18;93662.22;4952902;28;20055;-75
2023/11/06 07:29:51;;;;;;;7.38;1.98;;;;;;;14.52;52.76;93658.03;4958227;28;21230;-74
2023/11/06 07:32:16;;;;;;;6.07;1.90;;;;;;;14.44;53.09;93659.72;4959347;28;20038;-74
2023/11/06 07:34:42;;;;;;;6.65;1.92;;;;;;;14.46;52.97;93662.84;4960287;28;20069;-76
2023/11/06 07:37:09;;;;;;;8.13;1.80;;;;;;;14.70;52.14;93661.19;4959685;28;20782;-74
2023/11/06 07:39:36;;;;;;;6.20;3.35;;;;;;;14.41;53.55;93660.41;4959332;28;20624;-75
2023/11/06 07:42:01;;;;;;;5.07;3.13;;;;;;;14.42;53.66;93671.88;4958153;28;20516;-76
2023/11/06 07:44:27;;;;;;;5.97;2.03;;;;;;;13.87;54.18;93667.22;4956964;28;20049;-74
2023/11/06 07:46:53;;;;;;;8.40;3.00;;;;;;;14.21;54.12;93661.38;4951356;28;20042;-76
2023/11/06 07:49:18;;;;;;;5.93;2.55;;;;;;;14.65;53.50;93675.63;4935243;28;20035;-75
2023/11/06 07:51:44;;;;;;;5.03;2.08;;;;;;;14.89;52.92;93677.38;4937671;28;20026;-75
2023/11/06 07:54:10;;;;;;;5.25;2.10;;;;;;;14.78;52.34;93668.28;4940781;28;20043;-74
2023/11/06 07:56:39;;;;;;;9.77;2.85;;;;;;;14.81;52.26;93678.34;4949402;28;20110;-76
2023/11/06 07:59:04;;;;;;;8.90;2.78;;;;;;;14.65;52.37;93664.13;4959918;28;20045;-75
2023/11/06 08:01:30;;;;;;;9.57;3.10;;;;;;;14.25;54.09;93667.59;4961162;28;20034;-76
2023/11/06 08:03:55;;;;;;;8.93;3.80;;;;;;;14.51;54.01;93675.19;4963175;28;20385;-76
2023/11/06 08:06:21;;;;;;;5.75;2.65;;;;;;;14.56;54.05;93664.28;4958033;28;21208;-76
2023/11/06 08:08:46;;;;;;;6.88;3.90;;;;;;;14.74;53.69;93670.09;4960096;28;20050;-75
2023/11/06 08:11:12;;;;;;;7.00;2.65;;;;;;;14.91;52.42;93675.16;4961935;28;20038;-75
2023/11/06 08:13:37;;;;;;;8.52;3.10;;;;;;;15.12;51.72;93674.91;4958241;28;20062;-76
2023/11/06 08:16:04;;;;;;;7.45;2.33;;;;;;;15.08;51.08;93669.47;4962263;28;20484;-76
2023/11/06 08:18:30;;;;;;;7.50;1.80;;;;;;;14.99;50.13;93666.19;4958127;28;20061;-77
2023/11/06 08:20:56;;;;;;;6.80;1.88;;;;;;;15.07;50.18;93681.31;4963813;28;20522;-77
2023/11/06 08:23:21;;;;;;;4.65;2.15;;;;;;;15.12;49.64;93675.69;4961345;28;20038;-77
2023/11/06 08:25:47;;;;;;;5.50;2.63;;;;;;;14.97;49.28;93677.22;4960028;28;20077;-77
2023/11/06 08:28:12;;;;;;;5.25;1.92;;;;;;;14.44;50.57;93686.47;4958259;28;20030;-76
2023/11/06 08:30:38;;;;;;;7.65;2.38;;;;;;;14.65;50.31;93669.47;4962308;28;20117;-76
2023/11/06 08:33:04;;;;;;;5.88;2.10;;;;;;;14.91;49.66;93664.44;4957030;28;20237;-75
2023/11/06 08:35:29;;;;;;;9.70;2.72;;;;;;;15.06;48.96;93685.09;4956919;28;20078;-76
2023/11/06 08:37:55;;;;;;;12.15;2.15;;;;;;;14.68;48.95;93687.53;4950574;28;20058;-75
2023/11/06 08:40:20;;;;;;;4.70;2.10;;;;;;;14.84;48.90;93683.00;4942714;28;20138;-76
2023/11/06 08:42:47;;;;;;;7.88;1.90;;;;;;;15.14;47.94;93692.22;4959860;28;20109;-75
2023/11/06 08:45:12;;;;;;;6.50;2.80;;;;;;;14.90;48.62;93684.31;4954288;28;20051;-75
2023/11/06 08:47:39;;;;;;;4.63;1.63;;;;;;;15.03;48.80;93673.19;4961547;28;20038;-74
2023/11/06 08:50:06;;;;;;;7.45;1.73;;;;;;;15.26;47.85;93710.88;4965348;28;20050;-76
2023/11/06 08:52:32;;;;;;;8.95;2.55;;;;;;;14.81;47.94;93683.69;4960262;28;20038;-75
2023/11/06 08:54:57;;;;;;;7.47;2.13;;;;;;;15.22;48.84;93706.53;4958964;28;20429;-74
2023/11/06 08:57:23;;;;;;;6.00;2.33;;;;;;;15.42;47.47;93692.13;4960958;28;20165;-74
2023/11/06 08:59:49;;;;;;;10.13;2.22;;;;;;;15.34;46.57;93696.56;4959167;28;20042;-76
2023/11/06 09:02:14;;;;;;;4.82;2.13;;;;;;;15.45;46.06;93702.97;4961310;28;20437;-75
2023/11/06 09:04:40;;;;;;;8.48;1.73;;;;;;;15.25;46.94;93708.56;4958866;28;20137;-77
2023/11/06 09:07:07;;;;;;;4.78;1.60;;;;;;;15.57;45.97;93701.31;4953176;28;20046;-76
2023/11/06 09:09:33;;;;;;;7.55;1.75;;;;;;;15.20;46.23;93698.88;4958294;28;20113;-76
2023/11/06 09:11:59;;;;;;;8.40;1.73;;;;;;;15.35;46.52;93711.47;4963584;28;21145;-74
2023/11/06 09:14:26;;;;;;;6.82;2.00;;;;;;;15.60;45.78;93708.66;4959404;28;20031;-74
2023/11/06 09:16:52;;;;;;;6.25;1.80;;;;;;;15.70;45.79;93698.19;4959183;28;20039;-75
2023/11/06 09:19:17;;;;;;;10.43;1.80;;;;;;;15.71;44.54;93698.97;4953865;28;20078;-74
2023/11/06 09:21:43;;;;;;;9.38;2.53;;;;;;;15.85;44.53;93699.31;4957375;28;20727;-77
2023/11/06 09:24:09;;;;;;;12.95;1.80;;;;;;;15.97;45.12;93701.09;4957488;28;20116;-76
2023/11/06 09:26:35;;;;;;;4.43;1.13;;;;;;;15.80;44.54;93659.34;4959794;28;20113;-74
2023/11/06 09:29:01;;;;;;;8.93;1.88;;;;;;;16.33;43.79;93696.19;4958049;28;20655;-76
2023/11/06 09:31:30;;;;;;;7.82;2.13;;;;;;;16.14;43.69;93700.72;4960398;28;20043;-75
2023/11/06 09:33:56;;;;;;;5.88;1.83;;;;;;;16.23;43.40;93712.81;4958205;28;20064;-77
2023/11/06 09:36:22;;;;;;;7.03;1.73;;;;;;;15.85;43.15;93689.34;4958412;28;20030;-75
2023/11/06 09:38:48;;;;;;;9.00;1.63;;;;;;;16.06;43.68;93709.75;4960508;28;20559;-75
2023/11/06 09:41:13;;;;;;;6.18;1.70;;;;;;;16.20;43.93;93699.31;4957887;28;20038;-76
2023/11/06 09:43:42;;;;;;;6.50;1.67;;;;;;;16.37;42.61;93703.56;4956225;28;20561;-75
2023/11/06 09:46:09;;;;;;;7.43;2.05;;;;;;;16.49;43.73;93695.34;4956256;28;20084;-75
2023/11/06 09:48:35;;;;;;;8.38;1.65;;;;;;;16.61;42.80;93681.81;4958836;28;20018;-76
2023/11/06 09:51:06;;;;;;;5.80;1.90;;;;;;;16.86;41.76;93696.50;4958690;28;20043;-76
2023/11/06 09:53:33;;;;;;;6.78;1.80;;;;;;;17.05;41.38;93706.44;4957244;28;20042;-75
2023/11/06 09:55:59;;;;;;;7.43;2.08;;;;;;;16.53;41.97;93694.28;4957617;28;20580;-74
2023/11/06 09:58:25;;;;;;;8.13;1.52;;;;;;;16.43;42.90;93686.03;4958357;28;20034;-75
2023/11/06 10:00:51;;;;;;;7.20;1.60;;;;;;;16.33;41.42;93685.44;4953190;28;20073;-75
2023/11/06 10:03:22;;;;;;;8.82;2.65;;;;;;;16.25;42.46;93693.69;4957234;28;20092;-75
2023/11/06 10:05:47;;;;;;;7.32;1.83;;;;;;;16.24;40.14;93692.13;4956178;28;20326;-75
2023/11/06 10:08:28;;;;;;;8.30;1.10;;;;;;;16.19;36.12;93670.94;4957168;28;20038;-75
2023/11/06 10:10:59;;;;;;;4.18;1.13;;;;;;;16.25;35.66;93681.03;4955116;28;20051;-75
2023/11/06 10:13:25;;;;;;;4.43;0.80;;;;;;;16.29;36.29;93671.16;4939871;28;20409;-76
2023/11/06 10:15:51;;;;;;;2.33;0.80;;;;;;;16.48;36.20;93666.94;4958936;28;20030;-75
2023/11/06 10:18:20;;;;;;;3.47;1.83;;;;;;;16.67;35.52;93677.72;4954824;28;20086;-76
2023/11/06 10:20:55;;;;;;;5.35;0.95;;;;;;;16.66;35.49;93663.50;4956607;28;20046;-75
2023/11/06 10:23:23;;;;;;;;;;;;;;;16.77;37.26;93662.94;4956256;28;20070;-76
2023/11/06 10:25:49;;;;;;;2.95;0.80;;;;;;;16.90;35.45;93665.09;4951305;28;20292;-74
2023/11/06 10:28:19;;;;;;;7.40;1.00;;;;;;;17.04;35.12;93672.63;4937400;28;20034;-75
2023/11/06 10:30:51;;;;;;;3.20;0.80;;;;;;;17.10;34.49;93672.00;4957165;28;20593;-75
2023/11/06 10:33:18;;;;;;;4.97;0.88;;;;;;;17.15;34.55;93666.34;4955070;28;20046;-74
2023/11/06 10:35:45;;;;;;;5.55;0.95;;;;;;;16.81;35.00;93642.28;4958363;28;20089;-74
2023/11/06 10:38:33;;;;;;;5.18;1.00;;;;;;;17.04;34.86;93662.66;4954349;28;20049;-75
2023/11/06 10:41:25;;;;;;;3.08;0.80;;;;;;;16.85;33.81;93651.97;4949930;28;20062;-76
2023/11/06 10:43:59;;;;;;;4.82;0.80;;;;;;;16.91;34.04;93645.19;4952127;28;20073;-75
2023/11/06 10:46:29;;;;;;;;;;;;;;;16.97;34.79;93667.13;4955308;28;20686;-74
2023/11/06 10:49:09;;;;;;;4.55;1.27;;;;;;;17.06;35.98;93652.31;4957882;28;19917;-74
2023/11/06 10:51:38;;;;;;;5.15;0.80;;;;;;;17.19;34.88;93658.34;4957088;28;22062;-75
2023/11/06 10:54:05;;;;;;;3.58;1.10;;;;;;;17.16;34.77;93657.16;4956519;28;20043;-75
2023/11/06 10:56:33;;;;;;;3.55;0.82;;;;;;;17.29;35.38;93656.97;4958471;28;20643;-76
2023/11/06 10:59:02;;;;;;;2.72;1.38;;;;;;;17.24;34.89;93641.16;4960314;28;21051;-75
2023/11/06 11:01:28;;;;;;;2.88;0.63;;;;;;;17.10;35.30;93639.75;4957956;28;20100;-75
2023/11/06 11:03:54;;;;;;;5.07;0.98;;;;;;;17.32;35.06;93645.50;4956370;28;20277;-74
2023/11/06 11:06:20;;;;;;;5.82;0.90;;;;;;;17.48;36.54;93656.91;4953930;28;20713;-74
2023/11/06 11:08:47;;;;;;;5.75;1.60;;;;;;;17.56;34.26;93655.88;4956489;28;20045;-74
2023/11/06 11:11:13;;;;;;;4.22;0.98;;;;;;;17.49;33.96;93650.41;4955581;28;20047;-75
2023/11/06 11:13:42;;;;;;;2.55;0.77;;;;;;;17.79;34.82;93655.88;4955940;28;20096;-74
2023/11/06 11:16:45;;;;;;;4.30;0.80;;;;;;;18.08;34.70;93659.75;4956768;28;20102;-74
2023/11/06 11:19:31;;;;;;;3.95;0.65;;;;;;;18.06;33.32;93662.03;4954795;28;20023;-76
2023/11/06 11:22:10;;;;;;;3.45;0.80;;;;;;;17.95;33.55;93646.50;4955966;28;20042;-75
2023/11/06 11:24:41;;;;;;;3.90;1.20;;;;;;;17.86;32.51;93664.81;4955411;28;20098;-75
2023/11/06 11:27:30;;;;;;;3.67;0.70;;;;;;;17.97;33.33;93665.00;4952237;28;20085;-75
2023/11/06 11:29:56;;;;;;;2.00;0.73;;;;;;;18.02;32.70;93660.06;4954885;28;20046;-74
2023/11/06 11:32:27;;;;;;;3.92;0.80;;;;;;;17.95;33.19;93657.28;4955036;28;20189;-74